createdAt,value
2022-08-25T00:00:31.936Z,87
2022-08-25T00:01:31.345Z,87
2022-08-25T00:02:31.908Z,87
2022-08-25T00:03:35.975Z,87
2022-08-25T00:04:31.840Z,87
2022-08-25T00:08:35.078Z,87
2022-08-25T00:09:31.262Z,87
2022-08-25T00:10:31.844Z,87
2022-08-25T00:11:31.812Z,87
2022-08-25T00:12:31.828Z,87
2022-08-25T00:13:31.251Z,87
2022-08-25T00:14:31.815Z,87
2022-08-25T00:15:31.955Z,87
2022-08-25T00:16:31.832Z,87
2022-08-25T00:17:31.262Z,88
2022-08-25T00:18:31.814Z,88
2022-08-25T00:19:31.784Z,87
2022-08-25T00:20:31.800Z,87
2022-08-25T00:21:31.278Z,87
2022-08-25T00:22:31.807Z,87
2022-08-25T00:23:31.815Z,87
2022-08-25T00:24:31.847Z,87
2022-08-25T00:25:31.320Z,87
2022-08-25T00:26:32.032Z,87
2022-08-25T00:27:31.826Z,87
2022-08-25T00:28:31.823Z,87
2022-08-25T00:29:31.265Z,88
2022-08-25T00:30:31.827Z,88
2022-08-25T00:31:38.177Z,88
2022-08-25T00:32:31.824Z,88
2022-08-25T00:33:31.225Z,87
2022-08-25T00:34:31.841Z,87
2022-08-25T00:35:31.804Z,87
2022-08-25T00:36:31.818Z,87
2022-08-25T00:37:31.254Z,87
2022-08-25T00:38:32.633Z,87
2022-08-25T00:39:31.787Z,87
2022-08-25T00:40:31.892Z,87
2022-08-25T00:41:31.215Z,87
2022-08-25T00:42:31.800Z,88
2022-08-25T00:43:31.802Z,88
2022-08-25T00:44:31.813Z,88
2022-08-25T00:45:31.281Z,88
2022-08-25T00:46:31.913Z,88
2022-08-25T00:47:31.797Z,88
2022-08-25T00:48:31.913Z,88
2022-08-25T00:49:31.218Z,88
2022-08-25T00:50:31.793Z,88
2022-08-25T00:51:31.914Z,88
2022-08-25T00:52:31.916Z,88
2022-08-25T00:53:31.208Z,88
2022-08-25T00:54:31.786Z,88
2022-08-25T00:55:31.871Z,88
2022-08-25T00:56:31.807Z,88
2022-08-25T00:57:34.601Z,88
2022-08-25T00:58:31.812Z,88
2022-08-25T00:59:31.825Z,88
2022-08-25T01:00:31.814Z,88
2022-08-25T01:01:31.346Z,88
2022-08-25T01:02:31.837Z,88
2022-08-25T01:03:31.830Z,88
2022-08-25T01:04:31.938Z,88
2022-08-25T01:05:31.256Z,88
2022-08-25T01:06:31.802Z,88
2022-08-25T01:07:31.817Z,88
2022-08-25T01:08:32.212Z,89
2022-08-25T01:09:31.254Z,88
2022-08-25T01:10:31.788Z,88
2022-08-25T01:11:31.822Z,88
2022-08-25T01:12:31.820Z,88
2022-08-25T01:13:31.197Z,89
2022-08-25T01:14:31.823Z,88
2022-08-25T01:15:31.914Z,89
2022-08-25T01:16:31.961Z,89
2022-08-25T01:17:31.190Z,89
2022-08-25T01:18:31.855Z,89
2022-08-25T01:19:31.822Z,89
2022-08-25T01:20:31.842Z,89
2022-08-25T01:21:31.192Z,90
2022-08-25T01:22:31.805Z,90
2022-08-25T01:23:31.925Z,90
2022-08-25T01:24:31.815Z,91
2022-08-25T01:25:31.151Z,91
2022-08-25T01:26:31.777Z,91
2022-08-25T01:27:31.819Z,91
2022-08-25T01:28:31.799Z,91
2022-08-25T01:29:31.147Z,91
2022-08-25T01:30:31.845Z,91
2022-08-25T01:31:31.998Z,91
2022-08-25T01:32:31.823Z,91
2022-08-25T01:33:31.173Z,91
2022-08-25T01:34:31.773Z,90
2022-08-25T01:35:31.791Z,90
2022-08-25T01:36:31.828Z,89
2022-08-25T01:37:31.171Z,89
2022-08-25T01:38:31.787Z,89
2022-08-25T01:39:31.810Z,89
2022-08-25T01:40:32.069Z,89
2022-08-25T01:41:31.333Z,89
2022-08-25T01:42:31.945Z,89
2022-08-25T01:43:32.005Z,89
2022-08-25T01:44:31.947Z,88
2022-08-25T01:45:31.213Z,89
2022-08-25T01:46:32.000Z,89
2022-08-25T01:47:31.984Z,89
2022-08-25T01:48:31.794Z,89
2022-08-25T01:49:31.137Z,89
2022-08-25T01:50:31.829Z,89
2022-08-25T01:51:31.800Z,89
2022-08-25T01:52:31.810Z,89
2022-08-25T01:53:33.385Z,89
2022-08-25T01:54:31.911Z,89
2022-08-25T01:55:31.840Z,89
2022-08-25T01:56:31.825Z,89
2022-08-25T01:57:31.093Z,89
2022-08-25T01:58:31.785Z,89
2022-08-25T01:59:31.834Z,89
2022-08-25T02:00:31.839Z,89
2022-08-25T02:01:31.129Z,89
2022-08-25T02:02:31.929Z,89
2022-08-25T02:03:32.526Z,89
2022-08-25T02:04:31.834Z,89
2022-08-25T02:05:31.245Z,90
2022-08-25T02:06:31.816Z,90
2022-08-25T02:07:31.822Z,90
2022-08-25T02:08:31.813Z,90
2022-08-25T02:09:31.166Z,90
2022-08-25T02:10:31.932Z,90
2022-08-25T02:11:31.815Z,90
2022-08-25T02:12:31.803Z,90
2022-08-25T02:13:31.533Z,90
2022-08-25T02:14:31.789Z,90
2022-08-25T02:15:31.813Z,90
2022-08-25T02:16:31.933Z,90
2022-08-25T02:17:31.782Z,91
2022-08-25T02:18:31.822Z,91
2022-08-25T02:19:31.825Z,91
2022-08-25T02:20:31.809Z,91
2022-08-25T02:21:31.070Z,91
2022-08-25T02:22:31.822Z,91
2022-08-25T02:23:31.817Z,90
2022-08-25T02:24:31.813Z,90
2022-08-25T02:25:31.085Z,90
2022-08-25T02:26:31.811Z,90
2022-08-25T02:27:31.798Z,90
2022-08-25T02:28:31.806Z,90
2022-08-25T02:29:31.785Z,89
2022-08-25T02:30:31.878Z,90
2022-08-25T02:31:31.828Z,89
2022-08-25T02:32:31.805Z,89
2022-08-25T02:33:31.802Z,89
2022-08-25T02:34:31.884Z,89
2022-08-25T02:35:31.785Z,89
2022-08-25T02:36:31.829Z,89
2022-08-25T02:37:31.913Z,89
2022-08-25T02:38:31.886Z,89
2022-08-25T02:39:31.819Z,88
2022-08-25T02:40:31.864Z,88
2022-08-25T02:41:31.895Z,89
2022-08-25T02:42:31.819Z,89
2022-08-25T02:43:31.794Z,89
2022-08-25T02:44:31.863Z,89
2022-08-25T02:45:31.900Z,89
2022-08-25T02:46:31.794Z,89
2022-08-25T02:47:31.797Z,89
2022-08-25T02:48:31.811Z,89
2022-08-25T02:49:31.811Z,89
2022-08-25T02:50:31.805Z,89
2022-08-25T02:51:31.823Z,89
2022-08-25T02:52:31.834Z,89
2022-08-25T02:53:31.802Z,89
2022-08-25T02:54:31.919Z,90
2022-08-25T02:55:34.536Z,90
2022-08-25T02:56:31.992Z,90
2022-08-25T02:57:31.797Z,90
2022-08-25T02:58:31.821Z,90
2022-08-25T02:59:31.812Z,90
2022-08-25T03:00:31.951Z,90
2022-08-25T03:01:31.862Z,90
2022-08-25T03:02:31.808Z,90
2022-08-25T03:03:34.276Z,90
2022-08-25T03:04:31.883Z,90
2022-08-25T03:05:31.791Z,90
2022-08-25T03:06:31.819Z,90
2022-08-25T03:07:31.875Z,91
2022-08-25T03:08:31.808Z,91
2022-08-25T03:09:31.901Z,91
2022-08-25T03:10:31.836Z,91
2022-08-25T03:11:31.825Z,91
2022-08-25T03:12:31.954Z,91
2022-08-25T03:13:31.910Z,91
2022-08-25T03:14:31.902Z,91
2022-08-25T03:15:32.062Z,91
2022-08-25T03:16:32.007Z,91
2022-08-25T03:17:31.968Z,91
2022-08-25T03:18:31.961Z,91
2022-08-25T03:19:31.953Z,91
2022-08-25T03:20:31.944Z,91
2022-08-25T03:21:31.895Z,91
2022-08-25T03:22:31.886Z,91
2022-08-25T03:23:31.957Z,91
2022-08-25T03:24:31.888Z,91
2022-08-25T03:25:31.915Z,91
2022-08-25T03:26:31.966Z,92
2022-08-25T03:27:31.902Z,92
2022-08-25T03:28:31.879Z,92
2022-08-25T03:29:31.903Z,92
2022-08-25T03:30:32.307Z,92
2022-08-25T03:31:31.932Z,92
2022-08-25T03:32:31.785Z,92
2022-08-25T03:33:31.769Z,92
2022-08-25T03:34:31.849Z,92
2022-08-25T03:35:31.846Z,92
2022-08-25T03:36:31.818Z,92
2022-08-25T03:37:31.789Z,92
2022-08-25T03:38:31.817Z,92
2022-08-25T03:39:31.797Z,92
2022-08-25T03:40:32.001Z,92
2022-08-25T03:41:31.960Z,92
2022-08-25T03:42:31.858Z,92
2022-08-25T03:43:31.847Z,91
2022-08-25T03:44:31.791Z,90
2022-08-25T03:45:31.853Z,90
2022-08-25T03:46:31.775Z,89
2022-08-25T03:47:31.784Z,89
2022-08-25T03:48:31.801Z,89
2022-08-25T03:49:31.761Z,89
2022-08-25T03:50:34.908Z,89
2022-08-25T03:51:31.811Z,89
2022-08-25T03:52:31.923Z,89
2022-08-25T03:53:31.806Z,89
2022-08-25T03:54:31.800Z,89
2022-08-25T03:55:31.797Z,89
2022-08-25T03:56:31.802Z,89
2022-08-25T03:57:31.863Z,89
2022-08-25T03:58:31.931Z,89
2022-08-25T03:59:31.780Z,88
2022-08-25T04:00:31.846Z,89
2022-08-25T04:01:31.905Z,88
2022-08-25T04:02:31.845Z,88
2022-08-25T04:03:31.783Z,88
2022-08-25T04:04:31.794Z,88
2022-08-25T04:05:31.952Z,88
2022-08-25T04:06:31.959Z,88
2022-08-25T04:07:31.792Z,88
2022-08-25T04:08:31.961Z,88
2022-08-25T04:09:35.237Z,88
2022-08-25T04:10:31.811Z,88
2022-08-25T04:11:31.817Z,88
2022-08-25T04:12:31.967Z,88
2022-08-25T04:13:31.775Z,88
2022-08-25T04:14:32.941Z,88
2022-08-25T04:15:31.818Z,88
2022-08-25T04:16:31.863Z,89
2022-08-25T04:17:31.808Z,89
2022-08-25T04:18:31.832Z,89
2022-08-25T04:19:31.868Z,89
2022-08-25T04:20:31.819Z,89
2022-08-25T04:21:31.773Z,89
2022-08-25T04:22:31.795Z,89
2022-08-25T04:23:31.894Z,89
2022-08-25T04:24:31.809Z,89
2022-08-25T04:25:31.807Z,89
2022-08-25T04:26:31.939Z,89
2022-08-25T04:27:31.936Z,89
2022-08-25T04:28:31.793Z,89
2022-08-25T04:29:31.769Z,89
2022-08-25T04:30:31.798Z,90
2022-08-25T04:31:31.852Z,90
2022-08-25T04:32:31.801Z,90
2022-08-25T04:33:31.772Z,90
2022-08-25T04:34:31.877Z,90
2022-08-25T04:35:31.812Z,90
2022-08-25T04:36:31.834Z,90
2022-08-25T04:37:31.833Z,89
2022-08-25T04:38:31.781Z,90
2022-08-25T04:39:31.821Z,90
2022-08-25T04:40:31.841Z,90
2022-08-25T04:41:31.820Z,90
2022-08-25T04:42:31.819Z,90
2022-08-25T04:43:31.784Z,89
2022-08-25T04:44:31.848Z,89
2022-08-25T04:45:31.899Z,89
2022-08-25T04:46:31.936Z,89
2022-08-25T04:47:31.798Z,89
2022-08-25T04:48:31.816Z,89
2022-08-25T04:49:31.822Z,89
2022-08-25T04:50:31.954Z,89
2022-08-25T04:51:31.812Z,89
2022-08-25T04:52:31.877Z,89
2022-08-25T04:53:31.786Z,89
2022-08-25T04:54:37.170Z,88
2022-08-25T04:55:31.794Z,88
2022-08-25T04:56:31.819Z,88
2022-08-25T04:57:31.890Z,88
2022-08-25T04:58:31.805Z,87
2022-08-25T04:59:31.776Z,86
2022-08-25T05:00:31.900Z,86
2022-08-25T05:01:31.777Z,85
2022-08-25T05:02:31.937Z,85
2022-08-25T05:03:31.784Z,85
2022-08-25T05:04:32.034Z,84
2022-08-25T05:05:31.805Z,84
2022-08-25T05:06:31.817Z,83
2022-08-25T05:07:31.769Z,83
2022-08-25T05:08:31.820Z,83
2022-08-25T05:09:32.421Z,83
2022-08-25T05:10:31.782Z,82
2022-08-25T05:11:31.763Z,82
2022-08-25T05:12:31.788Z,81
2022-08-25T05:13:31.789Z,81
2022-08-25T05:14:31.935Z,80
2022-08-25T05:15:31.789Z,79
2022-08-25T05:16:31.889Z,78
2022-08-25T05:17:31.815Z,78
2022-08-25T05:18:31.784Z,78
2022-08-25T05:19:31.778Z,78
2022-08-25T05:20:31.800Z,78
2022-08-25T05:21:31.799Z,78
2022-08-25T05:22:31.786Z,78
2022-08-25T05:23:31.773Z,78
2022-08-25T05:24:31.832Z,78
2022-08-25T05:25:31.984Z,78
2022-08-25T05:26:31.798Z,78
2022-08-25T05:27:31.773Z,79
2022-08-25T05:28:31.791Z,78
2022-08-25T05:29:31.810Z,78
2022-08-25T05:30:31.802Z,77
2022-08-25T05:31:31.821Z,77
2022-08-25T05:32:31.781Z,76
2022-08-25T05:33:32.977Z,76
2022-08-25T05:34:31.794Z,74
2022-08-25T05:35:31.781Z,74
2022-08-25T05:36:31.808Z,75
2022-08-25T05:37:31.778Z,75
2022-08-25T05:38:31.789Z,75
2022-08-25T05:39:31.783Z,75
2022-08-25T05:40:31.841Z,73
2022-08-25T05:41:31.787Z,73
2022-08-25T05:42:31.774Z,72
2022-08-25T05:43:31.772Z,70
2022-08-25T05:44:31.768Z,70
2022-08-25T05:45:31.855Z,69
2022-08-25T05:46:32.066Z,67
2022-08-25T05:47:31.775Z,66
2022-08-25T05:48:31.735Z,64
2022-08-25T05:49:31.809Z,64
2022-08-25T05:50:31.769Z,64
2022-08-25T05:51:31.783Z,64
2022-08-25T05:52:31.861Z,63
2022-08-25T05:53:32.980Z,64
2022-08-25T05:54:31.791Z,65
2022-08-25T05:55:31.784Z,64
2022-08-25T05:56:31.775Z,63
2022-08-25T05:57:31.790Z,63
2022-08-25T05:58:31.774Z,62
2022-08-25T05:59:31.768Z,62
2022-08-25T06:00:31.825Z,63
2022-08-25T06:01:31.854Z,62
2022-08-25T06:02:31.829Z,63
2022-08-25T06:03:31.910Z,62
2022-08-25T06:04:31.871Z,62
2022-08-25T06:05:31.954Z,61
2022-08-25T06:06:31.776Z,61
2022-08-25T06:07:31.777Z,62
2022-08-25T06:08:31.843Z,61
2022-08-25T06:09:31.813Z,62
2022-08-25T06:10:31.763Z,62
2022-08-25T06:11:31.794Z,63
2022-08-25T06:12:31.785Z,64
2022-08-25T06:13:31.786Z,65
2022-08-25T06:14:31.755Z,66
2022-08-25T06:15:31.781Z,67
2022-08-25T06:16:31.881Z,66
2022-08-25T06:17:31.743Z,66
2022-08-25T06:18:31.761Z,66
2022-08-25T06:19:31.777Z,66
2022-08-25T06:20:31.925Z,66
2022-08-25T06:21:31.769Z,68
2022-08-25T06:22:31.783Z,69
2022-08-25T06:23:31.857Z,70
2022-08-25T06:24:31.773Z,70
2022-08-25T06:25:31.832Z,70
2022-08-25T06:26:31.758Z,71
2022-08-25T06:27:31.785Z,71
2022-08-25T06:28:31.792Z,70
2022-08-25T06:29:31.749Z,71
2022-08-25T06:30:31.792Z,71
2022-08-25T06:31:31.840Z,71
2022-08-25T06:32:31.864Z,72
2022-08-25T06:33:31.789Z,72
2022-08-25T06:34:31.732Z,72
2022-08-25T06:35:32.081Z,72
2022-08-25T06:36:31.774Z,72
2022-08-25T06:37:31.800Z,71
2022-08-25T06:38:31.893Z,71
2022-08-25T06:39:31.774Z,71
2022-08-25T06:40:31.932Z,71
2022-08-25T06:41:36.901Z,71
2022-08-25T06:42:32.124Z,71
2022-08-25T06:43:32.411Z,71
2022-08-25T06:44:31.797Z,71
2022-08-25T06:45:31.848Z,72
2022-08-25T06:46:36.291Z,72
2022-08-25T06:47:31.794Z,72
2022-08-25T06:48:31.794Z,72
2022-08-25T06:49:35.533Z,71
2022-08-25T06:50:31.796Z,71
2022-08-25T06:51:31.792Z,71
2022-08-25T06:52:31.790Z,71
2022-08-25T06:53:31.749Z,71
2022-08-25T06:54:31.790Z,71
2022-08-25T06:55:31.875Z,71
2022-08-25T06:56:31.795Z,71
2022-08-25T06:57:31.768Z,72
2022-08-25T06:58:31.800Z,71
2022-08-25T06:59:32.140Z,71
2022-08-25T07:00:31.902Z,71
2022-08-25T07:01:32.038Z,71
2022-08-25T07:02:31.777Z,71
2022-08-25T07:03:31.770Z,71
2022-08-25T07:04:31.963Z,71
2022-08-25T07:05:42.614Z,70
2022-08-25T07:06:31.811Z,70
2022-08-25T07:07:42.871Z,70
2022-08-25T07:08:31.758Z,70
2022-08-25T07:09:33.591Z,70
2022-08-25T07:10:31.811Z,69
2022-08-25T07:11:32.906Z,69
2022-08-25T07:12:31.781Z,69
2022-08-25T07:13:31.749Z,69
2022-08-25T07:14:31.827Z,70
2022-08-25T07:15:31.789Z,69
2022-08-25T07:16:31.857Z,69
2022-08-25T07:17:31.764Z,69
2022-08-25T07:18:31.762Z,69
2022-08-25T07:19:32.064Z,69
2022-08-25T07:20:31.783Z,69
2022-08-25T07:21:33.705Z,68
2022-08-25T07:22:31.792Z,68
2022-08-25T07:23:31.784Z,69
2022-08-25T07:24:31.865Z,68
2022-08-25T07:25:31.767Z,67
2022-08-25T07:26:37.910Z,67
2022-08-25T07:27:31.965Z,66
2022-08-25T07:28:31.777Z,66
2022-08-25T07:29:33.106Z,66
2022-08-25T07:30:31.769Z,65
2022-08-25T07:31:32.139Z,65
2022-08-25T07:32:31.777Z,65
2022-08-25T07:33:31.770Z,64
2022-08-25T07:34:31.775Z,64
2022-08-25T07:35:37.367Z,64
2022-08-25T07:36:31.798Z,62
2022-08-25T07:37:47.740Z,62
2022-08-25T07:38:31.844Z,62
2022-08-25T07:39:31.882Z,60
2022-08-25T07:40:31.871Z,59
2022-08-25T07:41:31.756Z,58
2022-08-25T07:42:31.796Z,58
2022-08-25T07:43:32.164Z,58
2022-08-25T07:44:31.786Z,58
2022-08-25T07:45:31.801Z,57
2022-08-25T07:46:31.869Z,57
2022-08-25T07:47:31.771Z,57
2022-08-25T07:48:31.825Z,57
2022-08-25T07:49:35.755Z,57
2022-08-25T07:50:31.770Z,56
2022-08-25T07:51:31.757Z,56
2022-08-25T07:52:31.752Z,56
2022-08-25T07:53:31.772Z,54
2022-08-25T07:54:33.864Z,55
2022-08-25T07:55:31.752Z,53
2022-08-25T07:56:31.881Z,54
2022-08-25T07:57:31.782Z,52
2022-08-25T07:58:31.782Z,53
2022-08-25T07:59:38.920Z,52
2022-08-25T08:00:31.778Z,50
2022-08-25T08:01:32.063Z,52
2022-08-25T08:02:31.863Z,52
2022-08-25T08:03:45.249Z,51
2022-08-25T08:04:31.779Z,51
2022-08-25T08:05:31.770Z,50
2022-08-25T08:06:31.786Z,51
2022-08-25T08:07:42.162Z,50
2022-08-25T08:08:31.744Z,49
2022-08-25T08:09:31.748Z,49
2022-08-25T08:11:03.290Z,49
2022-08-25T08:11:31.808Z,48
2022-08-25T08:12:31.764Z,47
2022-08-25T08:13:31.863Z,46
2022-08-25T08:14:31.925Z,47
2022-08-25T08:15:31.783Z,47
2022-08-25T08:16:31.841Z,47
2022-08-25T08:17:31.977Z,45
2022-08-25T08:18:31.769Z,46
2022-08-25T08:19:31.752Z,45
2022-08-25T08:20:31.785Z,45
2022-08-25T08:21:31.870Z,45
2022-08-25T08:22:31.795Z,48
2022-08-25T08:23:31.746Z,48
2022-08-25T08:24:44.656Z,48
2022-08-25T08:25:31.867Z,48
2022-08-25T08:26:55.312Z,48
2022-08-25T08:27:31.802Z,48
2022-08-25T08:28:31.879Z,47
2022-08-25T08:29:31.784Z,47
2022-08-25T08:30:31.790Z,47
2022-08-25T08:31:31.825Z,45
2022-08-25T08:32:46.445Z,46
2022-08-25T08:33:31.807Z,45
2022-08-25T08:34:31.776Z,45
2022-08-25T08:35:31.746Z,45
2022-08-25T08:36:31.760Z,46
2022-08-25T08:37:31.958Z,46
2022-08-25T08:38:31.768Z,46
2022-08-25T08:39:31.747Z,46
2022-08-25T08:40:31.876Z,42
2022-08-25T08:41:33.858Z,43
2022-08-25T08:42:31.776Z,43
2022-08-25T08:43:33.440Z,43
2022-08-25T08:44:31.798Z,43
2022-08-25T08:45:31.745Z,44
2022-08-25T08:46:31.836Z,43
2022-08-25T08:47:31.756Z,42
2022-08-25T08:48:31.714Z,41
2022-08-25T08:49:31.771Z,40
2022-08-25T08:50:33.116Z,40
2022-08-25T08:51:32.894Z,40
2022-08-25T08:52:31.789Z,39
2022-08-25T08:53:34.008Z,40
2022-08-25T08:54:34.073Z,41
2022-08-25T08:55:31.772Z,42
2022-08-25T08:56:31.957Z,40
2022-08-25T08:57:31.762Z,39
2022-08-25T08:58:31.712Z,38
2022-08-25T08:59:31.813Z,38
2022-08-25T09:00:33.092Z,39
2022-08-25T09:01:31.862Z,38
2022-08-25T09:02:39.477Z,38
2022-08-25T09:03:31.922Z,38
2022-08-25T09:04:31.779Z,38
2022-08-25T09:05:34.381Z,37
2022-08-25T09:06:31.788Z,36
2022-08-25T09:07:31.786Z,37
2022-08-25T09:08:31.847Z,38
2022-08-25T09:09:35.585Z,36
2022-08-25T09:10:31.739Z,36
2022-08-25T09:11:31.798Z,37
2022-08-25T09:12:31.814Z,37
2022-08-25T09:13:31.764Z,38
2022-08-25T09:14:31.735Z,36
2022-08-25T09:15:31.791Z,37
2022-08-25T09:16:34.455Z,36
2022-08-25T09:17:31.841Z,35
2022-08-25T09:18:31.762Z,35
2022-08-25T09:19:32.129Z,35
2022-08-25T09:20:31.765Z,36
2022-08-25T09:21:31.772Z,37
2022-08-25T09:22:35.520Z,37
2022-08-25T09:23:31.886Z,37
2022-08-25T09:24:31.757Z,37
2022-08-25T09:25:52.256Z,37
2022-08-25T09:26:31.835Z,38
2022-08-25T09:27:31.797Z,38
2022-08-25T09:28:31.775Z,36
2022-08-25T09:29:31.769Z,37
2022-08-25T09:30:31.751Z,36
2022-08-25T09:31:31.973Z,36
2022-08-25T09:32:31.838Z,36
2022-08-25T09:33:33.575Z,36
2022-08-25T09:34:31.733Z,36
2022-08-25T09:35:32.095Z,36
2022-08-25T09:36:36.740Z,36
2022-08-25T09:37:31.784Z,37
2022-08-25T09:38:31.737Z,36
2022-08-25T09:39:31.760Z,37
2022-08-25T09:40:31.877Z,37
2022-08-25T09:41:31.766Z,37
2022-08-25T09:42:31.736Z,36
2022-08-25T09:43:31.760Z,36
2022-08-25T09:44:31.866Z,38
2022-08-25T09:45:31.802Z,38
2022-08-25T09:46:31.853Z,38
2022-08-25T09:47:31.751Z,38
2022-08-25T09:48:31.756Z,38
2022-08-25T09:49:31.805Z,37
2022-08-25T09:50:31.795Z,37
2022-08-25T09:51:37.968Z,37
2022-08-25T09:52:31.911Z,37
2022-08-25T09:53:33.920Z,37
2022-08-25T09:54:43.944Z,39
2022-08-25T09:55:32.593Z,39
2022-08-25T09:56:31.766Z,39
2022-08-25T09:57:31.769Z,38
2022-08-25T09:58:31.830Z,38
2022-08-25T09:59:35.123Z,39
2022-08-25T10:00:31.793Z,39
2022-08-25T10:01:34.679Z,40
2022-08-25T10:02:31.743Z,41
2022-08-25T10:03:31.748Z,40
2022-08-25T10:04:31.759Z,40
2022-08-25T10:05:31.882Z,40
2022-08-25T10:06:31.808Z,40
2022-08-25T10:07:31.834Z,41
2022-08-25T10:08:31.776Z,40
2022-08-25T10:09:31.759Z,41
2022-08-25T10:10:32.209Z,41
2022-08-25T10:11:31.804Z,42
2022-08-25T10:12:31.797Z,42
2022-08-25T10:13:31.784Z,41
2022-08-25T10:14:31.735Z,41
2022-08-25T10:15:31.850Z,41
2022-08-25T10:16:36.031Z,41
2022-08-25T10:17:31.770Z,41
2022-08-25T10:18:31.727Z,41
2022-08-25T10:19:31.735Z,41
2022-08-25T10:20:35.127Z,42
2022-08-25T10:21:31.756Z,42
2022-08-25T10:22:31.809Z,42
2022-08-25T10:23:31.757Z,42
2022-08-25T10:24:31.798Z,43
2022-08-25T10:25:31.774Z,42
2022-08-25T10:26:34.855Z,42
2022-08-25T10:27:31.796Z,42
2022-08-25T10:28:31.757Z,42
2022-08-25T10:29:32.609Z,43
2022-08-25T10:30:32.038Z,43
2022-08-25T10:31:33.049Z,43
2022-08-25T10:32:31.987Z,43
2022-08-25T10:33:31.787Z,43
2022-08-25T10:34:31.767Z,43
2022-08-25T10:35:31.871Z,44
2022-08-25T10:36:31.761Z,44
2022-08-25T10:37:32.673Z,44
2022-08-25T10:38:35.479Z,44
2022-08-25T10:39:36.429Z,43
2022-08-25T10:40:31.795Z,43
2022-08-25T10:41:31.749Z,43
2022-08-25T10:42:31.764Z,43
2022-08-25T10:43:31.797Z,44
2022-08-25T10:44:31.852Z,43
2022-08-25T10:45:31.760Z,43
2022-08-25T10:46:31.793Z,44
2022-08-25T10:47:31.755Z,44
2022-08-25T10:48:31.756Z,44
2022-08-25T10:49:31.727Z,43
2022-08-25T10:50:31.777Z,43
2022-08-25T10:51:31.745Z,42
2022-08-25T10:52:31.736Z,42
2022-08-25T10:53:31.769Z,43
2022-08-25T10:54:31.867Z,42
2022-08-25T10:55:31.752Z,42
2022-08-25T10:56:32.172Z,42
2022-08-25T10:57:31.791Z,42
2022-08-25T10:58:31.751Z,41
2022-08-25T10:59:31.730Z,41
2022-08-25T11:00:33.358Z,42
2022-08-25T11:01:38.988Z,43
2022-08-25T11:02:31.748Z,42
2022-08-25T11:03:35.138Z,42
2022-08-25T11:04:31.763Z,41
2022-08-25T11:05:31.856Z,42
2022-08-25T11:06:31.757Z,42
2022-08-25T11:07:31.740Z,42
2022-08-25T11:08:31.928Z,42
2022-08-25T11:09:31.741Z,43
2022-08-25T11:10:31.792Z,43
2022-08-25T11:11:31.765Z,43
2022-08-25T11:12:31.831Z,42
2022-08-25T11:13:31.764Z,42
2022-08-25T11:14:34.544Z,42
2022-08-25T11:15:31.791Z,42
2022-08-25T11:16:31.890Z,42
2022-08-25T11:17:31.748Z,42
2022-08-25T11:18:31.752Z,42
2022-08-25T11:19:32.773Z,42
2022-08-25T11:20:31.758Z,42
2022-08-25T11:21:31.825Z,42
2022-08-25T11:22:32.447Z,43
2022-08-25T11:23:31.714Z,42
2022-08-25T11:24:31.752Z,42
2022-08-25T11:25:31.779Z,42
2022-08-25T11:26:36.141Z,42
2022-08-25T11:27:31.703Z,42
2022-08-25T11:28:31.771Z,43
2022-08-25T11:29:31.771Z,42
2022-08-25T11:30:31.786Z,42
2022-08-25T11:31:31.732Z,41
2022-08-25T11:32:31.771Z,42
2022-08-25T11:33:31.771Z,42
2022-08-25T11:34:31.903Z,43
2022-08-25T11:35:31.719Z,42
2022-08-25T11:36:31.751Z,41
2022-08-25T11:37:31.755Z,41
2022-08-25T11:38:31.740Z,41
2022-08-25T11:39:34.435Z,41
2022-08-25T11:40:31.928Z,41
2022-08-25T11:41:31.759Z,41
2022-08-25T11:42:31.773Z,41
2022-08-25T11:43:35.830Z,41
2022-08-25T11:44:31.778Z,41
2022-08-25T11:45:31.790Z,41
2022-08-25T11:46:31.840Z,41
2022-08-25T11:47:31.746Z,40
2022-08-25T11:48:31.779Z,40
2022-08-25T11:49:31.788Z,40
2022-08-25T11:50:31.796Z,40
2022-08-25T11:51:33.671Z,39
2022-08-25T11:52:31.742Z,40
2022-08-25T11:53:31.768Z,40
2022-08-25T11:54:31.720Z,41
2022-08-25T11:55:31.760Z,40
2022-08-25T11:56:31.763Z,40
2022-08-25T11:57:31.744Z,41
2022-08-25T11:58:31.753Z,40
2022-08-25T11:59:31.740Z,39
2022-08-25T12:00:31.762Z,39
2022-08-25T12:01:31.729Z,39
2022-08-25T12:02:31.740Z,39
2022-08-25T12:03:31.753Z,39
2022-08-25T12:04:31.942Z,39
2022-08-25T12:05:31.788Z,39
2022-08-25T12:06:31.769Z,40
2022-08-25T12:07:31.747Z,40
2022-08-25T12:08:31.807Z,40
2022-08-25T12:09:31.871Z,40
2022-08-25T12:10:31.782Z,40
2022-08-25T12:11:31.721Z,40
2022-08-25T12:12:31.747Z,41
2022-08-25T12:13:31.906Z,41
2022-08-25T12:14:31.759Z,40
2022-08-25T12:15:31.723Z,40
2022-08-25T12:16:31.785Z,40
2022-08-25T12:17:31.750Z,40
2022-08-25T12:18:31.717Z,40
2022-08-25T12:19:31.756Z,39
2022-08-25T12:20:31.773Z,39
2022-08-25T12:21:31.860Z,39
2022-08-25T12:22:31.772Z,40
2022-08-25T12:23:31.733Z,39
2022-08-25T12:24:31.724Z,40
2022-08-25T12:25:31.787Z,40
2022-08-25T12:26:31.763Z,40
2022-08-25T12:27:33.894Z,40
2022-08-25T12:28:35.069Z,40
2022-08-25T12:29:31.742Z,41
2022-08-25T12:30:31.792Z,40
2022-08-25T12:31:31.746Z,40
2022-08-25T12:32:31.763Z,39
2022-08-25T12:33:31.739Z,41
2022-08-25T12:34:31.820Z,40
2022-08-25T12:35:31.871Z,39
2022-08-25T12:36:31.883Z,40
2022-08-25T12:37:31.744Z,40
2022-08-25T12:38:31.786Z,41
2022-08-25T12:39:31.720Z,41
2022-08-25T12:40:31.840Z,41
2022-08-25T12:41:33.565Z,42
2022-08-25T12:42:31.761Z,41
2022-08-25T12:43:37.380Z,41
2022-08-25T12:44:31.772Z,40
2022-08-25T12:45:31.749Z,40
2022-08-25T12:46:31.752Z,40
2022-08-25T12:47:31.917Z,40
2022-08-25T12:48:31.674Z,39
2022-08-25T12:49:31.746Z,40
2022-08-25T12:50:31.797Z,40
2022-08-25T12:51:31.737Z,40
2022-08-25T12:52:31.730Z,40
2022-08-25T12:53:31.734Z,38
2022-08-25T12:54:31.710Z,39
2022-08-25T12:55:31.735Z,38
2022-08-25T12:56:31.743Z,37
2022-08-25T12:57:31.723Z,38
2022-08-25T12:58:49.858Z,38
2022-08-25T12:59:31.793Z,38
2022-08-25T13:00:31.914Z,38
2022-08-25T13:01:35.212Z,37
2022-08-25T13:02:31.829Z,37
2022-08-25T13:03:31.841Z,37
2022-08-25T13:04:31.754Z,37
2022-08-25T13:05:33.626Z,38
2022-08-25T13:06:31.737Z,38
2022-08-25T13:07:31.746Z,39
2022-08-25T13:08:33.968Z,39
2022-08-25T13:09:31.784Z,38
2022-08-25T13:10:31.719Z,38
2022-08-25T13:11:32.231Z,38
2022-08-25T13:12:31.852Z,37
2022-08-25T13:13:31.732Z,37
2022-08-25T13:15:31.730Z,37
2022-08-25T13:16:31.761Z,37
2022-08-25T13:17:33.237Z,37
2022-08-25T13:18:31.771Z,38
2022-08-25T13:19:34.756Z,39
2022-08-25T13:20:31.826Z,38
2022-08-25T13:21:31.734Z,38
2022-08-25T13:22:31.727Z,38
2022-08-25T13:23:31.752Z,38
2022-08-25T13:24:32.126Z,39
2022-08-25T13:25:32.636Z,39
2022-08-25T13:26:31.730Z,39
2022-08-25T13:27:31.752Z,39
2022-08-25T13:28:31.738Z,38
2022-08-25T13:29:36.859Z,39
2022-08-25T13:30:31.720Z,39
2022-08-25T13:31:31.781Z,39
2022-08-25T13:32:32.507Z,40
2022-08-25T13:33:31.788Z,39
2022-08-25T13:34:34.803Z,40
2022-08-25T13:35:32.462Z,39
2022-08-25T13:36:31.917Z,39
2022-08-25T13:37:31.778Z,40
2022-08-25T13:38:31.853Z,39
2022-08-25T13:39:54.959Z,40
2022-08-25T13:40:32.093Z,40
2022-08-25T13:41:33.916Z,39
2022-08-25T13:42:31.866Z,39
2022-08-25T13:43:31.737Z,40
2022-08-25T13:44:31.765Z,40
2022-08-25T13:45:32.191Z,40
2022-08-25T13:46:31.981Z,41
2022-08-25T13:47:31.765Z,40
2022-08-25T13:48:31.803Z,40
2022-08-25T13:49:31.735Z,40
2022-08-25T13:50:31.720Z,40
2022-08-25T13:51:31.947Z,40
2022-08-25T13:52:31.694Z,40
2022-08-25T13:53:31.826Z,40
2022-08-25T13:54:31.750Z,40
2022-08-25T13:55:38.252Z,40
2022-08-25T13:56:38.448Z,41
2022-08-25T13:57:31.884Z,40
2022-08-25T13:58:38.978Z,40
2022-08-25T13:59:31.876Z,40
2022-08-25T14:00:32.474Z,41
2022-08-25T14:01:47.591Z,40
2022-08-25T14:02:31.897Z,40
2022-08-25T14:03:31.854Z,40
2022-08-25T14:04:31.732Z,41
2022-08-25T14:05:31.885Z,41
2022-08-25T14:06:31.747Z,41
2022-08-25T14:07:34.000Z,41
2022-08-25T14:08:32.258Z,41
2022-08-25T14:09:31.755Z,41
2022-08-25T14:10:31.666Z,41
2022-08-25T14:11:31.708Z,41
2022-08-25T14:12:31.814Z,41
2022-08-25T14:13:31.845Z,41
2022-08-25T14:14:31.736Z,41
2022-08-25T14:15:32.182Z,41
2022-08-25T14:16:31.888Z,41
2022-08-25T14:17:39.747Z,42
2022-08-25T14:18:31.727Z,40
2022-08-25T14:19:31.728Z,41